Time;durP1;ratioP1;P1;durP2;ratioP2;P2;SDS_P1;SDS_P2;PMS_P1;PMS_P2;Temp;Humidity;BMP_temperature;BMP_pressure;BME280_temperature;BME280_humidity;BME280_pressure;Samples;Min_cycle;Max_cycle;Signal;HPM_P1;HPM_P2
2022/09/23 00:00:58;;;;;;;17.90;15.00;;;;;;;9.35;99.90;101646.06;5035811;28;20068;-85
2022/09/23 00:03:24;;;;;;;17.77;14.87;;;;;;;9.29;99.50;101653.06;5037740;28;20036;-85
2022/09/23 00:05:57;;;;;;;19.53;15.23;;;;;;;9.31;99.67;101652.88;5036932;28;20485;-84
2022/09/23 00:08:23;;;;;;;18.53;14.90;;;;;;;9.33;98.84;101646.25;5037140;28;20061;-85
2022/09/23 00:10:48;;;;;;;18.13;14.93;;;;;;;9.27;99.07;101657.78;5068682;28;20127;-84
2022/09/23 00:13:13;;;;;;;18.97;14.90;;;;;;;9.24;98.77;101640.06;5037557;28;20134;-83
2022/09/23 00:15:38;;;;;;;19.30;15.17;;;;;;;9.17;98.95;101635.59;5037447;28;20051;-84
2022/09/23 00:18:04;;;;;;;18.60;14.67;;;;;;;9.23;99.49;101642.97;5037688;28;20128;-84
2022/09/23 00:20:32;;;;;;;18.43;15.13;;;;;;;9.17;99.64;101641.00;5037110;28;20508;-84
2022/09/23 00:22:58;;;;;;;19.73;15.80;;;;;;;9.15;99.41;101635.75;5037454;28;20119;-84
2022/09/23 00:25:24;;;;;;;17.87;15.23;;;;;;;9.13;99.26;101629.72;5035415;28;20450;-84
2022/09/23 00:27:49;;;;;;;19.20;14.23;;;;;;;9.12;99.60;101639.69;5035265;28;20040;-84
2022/09/23 00:30:14;;;;;;;18.87;14.80;;;;;;;9.11;99.51;101631.72;5036743;28;21233;-85
2022/09/23 00:32:39;;;;;;;18.03;14.67;;;;;;;9.08;99.77;101627.56;5037284;28;20045;-84
2022/09/23 00:35:05;;;;;;;16.77;14.27;;;;;;;9.05;99.57;101624.38;5036654;28;20099;-84
2022/09/23 00:37:31;;;;;;;18.60;14.80;;;;;;;9.10;99.07;101620.09;5043954;28;20048;-84
2022/09/23 00:39:59;;;;;;;17.63;14.80;;;;;;;9.19;97.69;101625.44;5034916;28;20041;-84
2022/09/23 00:42:24;;;;;;;16.80;13.87;;;;;;;9.26;96.56;101618.25;5036776;28;20132;-85
2022/09/23 00:44:51;;;;;;;18.23;14.30;;;;;;;9.33;96.05;101623.75;5036493;28;20045;-86
2022/09/23 00:47:28;;;;;;;19.40;15.10;;;;;;;9.32;95.69;101624.81;5036832;28;20476;-84
2022/09/23 00:50:35;;;;;;;16.70;13.27;;;;;;;9.40;95.92;101627.44;5043297;28;20557;-86
2022/09/23 00:53:05;;;;;;;18.27;14.73;;;;;;;9.40;95.08;101622.03;5032735;28;20055;-84
2022/09/23 00:55:38;;;;;;;18.03;14.10;;;;;;;9.45;94.21;101622.28;5036259;28;20033;-84
2022/09/23 00:58:06;;;;;;;19.57;14.53;;;;;;;9.40;94.71;101620.16;5036743;28;20326;-87
2022/09/23 01:00:32;;;;;;;17.10;14.47;;;;;;;9.29;96.03;101613.31;5036388;28;20063;-84
2022/09/23 01:02:59;;;;;;;16.43;13.93;;;;;;;9.29;95.72;101613.31;5051565;28;21906;-84
2022/09/23 01:05:25;;;;;;;19.50;13.17;;;;;;;9.42;94.19;101611.84;5035545;28;20037;-84
2022/09/23 01:07:50;;;;;;;18.33;13.73;;;;;;;9.41;93.61;101616.41;5036250;28;20087;-85
2022/09/23 01:10:17;;;;;;;17.63;13.50;;;;;;;9.44;93.24;101601.69;5036659;28;20036;-86
2022/09/23 01:13:11;;;;;;;15.43;12.17;;;;;;;9.51;93.08;101612.59;5041395;28;20179;-84
2022/09/23 01:15:52;;;;;;;16.58;13.32;;;;;;;9.50;92.92;101606.34;5035779;28;20036;-85
2022/09/23 01:18:26;;;;;;;16.17;12.77;;;;;;;9.49;92.67;101606.53;5035024;28;20102;-84
2022/09/23 01:21:07;;;;;;;;;;;;;;;9.56;92.48;101602.91;5036632;28;20057;-86
2022/09/23 01:24:10;;;;;;;17.63;12.87;;;;;;;9.55;92.30;101603.91;5036712;28;19975;-84
2022/09/23 01:26:57;;;;;;;17.47;12.63;;;;;;;9.57;92.19;101603.72;5035843;28;20043;-84
2022/09/23 01:30:00;;;;;;;16.73;12.67;;;;;;;9.55;92.24;101601.22;5036007;28;20043;-86
2022/09/23 01:33:07;;;;;;;17.80;12.70;;;;;;;9.59;92.06;101613.34;5036314;28;20115;-85
2022/09/23 01:35:37;;;;;;;19.60;12.90;;;;;;;9.53;92.11;101597.84;5034688;28;20041;-85
2022/09/23 01:38:30;;;;;;;16.17;12.80;;;;;;;9.57;91.92;101601.03;5036008;28;20059;-85
2022/09/23 01:41:22;;;;;;;16.80;12.70;;;;;;;9.54;92.07;101598.69;5035543;28;20040;-86
2022/09/23 01:44:05;;;;;;;18.30;13.30;;;;;;;9.51;91.75;101590.97;5020373;28;20061;-85
2022/09/23 01:46:54;;;;;;;16.07;12.13;;;;;;;9.54;91.89;101587.88;5035425;28;20464;-84
2022/09/23 01:49:31;;;;;;;14.93;12.63;;;;;;;9.44;92.09;101591.69;5035565;28;20033;-85
2022/09/23 01:52:06;;;;;;;16.53;12.60;;;;;;;9.41;92.01;101594.78;5035049;28;20048;-85
2022/09/23 01:54:40;;;;;;;16.23;12.30;;;;;;;9.42;91.89;101587.50;5036595;28;20090;-85
2022/09/23 01:57:30;;;;;;;18.23;13.25;;;;;;;9.34;92.65;101580.31;5035412;28;20029;-85
2022/09/23 02:00:05;;;;;;;16.37;12.33;;;;;;;9.33;92.76;101591.31;5035264;28;20327;-84
2022/09/23 02:02:48;;;;;;;16.53;12.37;;;;;;;9.31;93.08;101587.97;5034079;28;20041;-84
2022/09/23 02:05:31;;;;;;;17.27;12.20;;;;;;;9.31;93.00;101588.78;5034964;28;20073;-84
2022/09/23 02:08:07;;;;;;;18.87;12.70;;;;;;;9.28;93.13;101587.28;5035317;28;20036;-85
2022/09/23 02:10:50;;;;;;;14.67;12.53;;;;;;;9.29;93.37;101575.47;5035288;28;20076;-85
2022/09/23 02:13:47;;;;;;;15.87;12.73;;;;;;;9.28;93.77;101578.34;5035279;28;20044;-84
2022/09/23 02:16:41;;;;;;;18.03;13.53;;;;;;;9.29;94.17;101575.47;5034507;28;20507;-85
2022/09/23 02:19:12;;;;;;;17.10;13.07;;;;;;;9.09;94.86;101579.72;5035227;28;20075;-84
2022/09/23 02:22:08;;;;;;;16.30;13.17;;;;;;;9.24;94.99;101582.44;5033486;28;20040;-85
2022/09/23 02:24:37;;;;;;;17.47;12.90;;;;;;;9.23;95.26;101575.34;5035394;28;20472;-84
2022/09/23 02:27:13;;;;;;;18.90;14.27;;;;;;;9.24;95.13;101575.16;5042071;28;20052;-84
2022/09/23 02:29:50;;;;;;;16.10;13.20;;;;;;;9.25;95.14;101571.44;5035164;28;20033;-84
2022/09/23 02:32:21;;;;;;;18.77;12.70;;;;;;;9.25;94.69;101571.44;5034098;28;20091;-84
2022/09/23 02:34:50;;;;;;;16.83;13.73;;;;;;;9.26;94.95;101559.63;5035361;28;20581;-84
2022/09/23 02:37:45;;;;;;;17.47;13.53;;;;;;;9.31;94.85;101566.34;5035049;28;20033;-84
2022/09/23 02:40:15;;;;;;;17.27;13.60;;;;;;;9.27;95.18;101555.03;5034572;28;20028;-86
2022/09/23 02:42:49;;;;;;;16.90;13.27;;;;;;;9.25;94.89;101557.09;5034882;28;20509;-84
2022/09/23 02:45:14;;;;;;;16.90;12.93;;;;;;;9.25;94.56;101552.53;5035175;28;20598;-84
2022/09/23 02:47:42;;;;;;;18.67;13.10;;;;;;;9.25;94.42;101543.59;5050360;28;20123;-85
2022/09/23 02:50:08;;;;;;;16.07;12.73;;;;;;;9.25;94.07;101547.13;5033863;28;20975;-85
2022/09/23 02:52:37;;;;;;;17.33;13.03;;;;;;;9.23;94.66;101542.91;5034490;28;20097;-84
2022/09/23 02:55:07;;;;;;;15.40;12.63;;;;;;;9.21;94.51;101545.81;5050320;28;20037;-84
2022/09/23 02:57:33;;;;;;;15.93;12.97;;;;;;;9.19;94.40;101537.03;5033915;28;20416;-84
2022/09/23 03:00:01;;;;;;;16.67;13.27;;;;;;;9.18;94.44;101532.66;5067024;28;20047;-84
2022/09/23 03:02:37;;;;;;;17.73;12.53;;;;;;;9.16;94.57;101531.16;5034856;28;20037;-85
2022/09/23 03:05:22;;;;;;;19.63;13.13;;;;;;;9.15;94.69;101530.31;5034577;28;20078;-84
2022/09/23 03:08:03;;;;;;;17.80;13.37;;;;;;;9.07;94.75;101522.28;5035297;28;20040;-84
2022/09/23 03:10:40;;;;;;;17.53;12.90;;;;;;;9.08;94.82;101534.78;5034775;28;20602;-84
2022/09/23 03:13:21;;;;;;;18.77;13.83;;;;;;;9.04;94.93;101528.91;5035191;28;20724;-84
2022/09/23 03:15:59;;;;;;;18.10;13.37;;;;;;;9.01;95.10;101520.34;5036818;28;20025;-84
2022/09/23 03:19:04;;;;;;;15.60;12.83;;;;;;;9.00;95.27;101521.38;5038415;28;20045;-85
2022/09/23 03:21:45;;;;;;;;;;;;;;;9.06;94.27;101515.22;5038900;28;20045;-84
2022/09/23 03:24:13;;;;;;;15.90;13.03;;;;;;;8.90;95.07;101522.47;5037069;28;20014;-84
2022/09/23 03:26:42;;;;;;;15.77;12.73;;;;;;;8.88;95.59;101524.53;5038284;28;20095;-83
2022/09/23 03:29:10;;;;;;;15.30;12.90;;;;;;;8.85;95.73;101519.47;5038330;28;20041;-84
2022/09/23 03:31:37;;;;;;;16.57;13.27;;;;;;;8.82;95.73;101517.13;5052989;28;20478;-84
2022/09/23 03:34:12;;;;;;;18.63;12.90;;;;;;;8.83;95.96;101516.13;5038164;28;20037;-84
2022/09/23 03:36:52;;;;;;;17.57;13.00;;;;;;;8.76;95.97;101507.09;5038464;28;20067;-84
2022/09/23 03:39:45;;;;;;;16.53;13.10;;;;;;;8.79;96.14;101517.50;5053632;28;20491;-84
2022/09/23 03:42:17;;;;;;;15.73;13.00;;;;;;;8.81;96.06;101511.91;5037674;28;20428;-85
2022/09/23 03:44:46;;;;;;;15.83;13.30;;;;;;;8.77;96.16;101516.84;5038413;28;20040;-84
2022/09/23 03:47:13;;;;;;;14.90;13.00;;;;;;;8.77;96.11;101517.69;5037605;28;20075;-83
2022/09/23 03:49:41;;;;;;;15.23;12.87;;;;;;;8.72;96.46;101517.41;5028366;28;20082;-85
2022/09/23 03:52:07;;;;;;;16.23;13.30;;;;;;;8.77;96.46;101516.84;5037760;28;20053;-85
2022/09/23 03:54:32;;;;;;;16.40;12.70;;;;;;;8.76;96.33;101507.09;5038564;28;20396;-84
2022/09/23 03:56:59;;;;;;;15.47;12.27;;;;;;;8.73;96.40;101513.69;5037972;28;20393;-84
2022/09/23 03:59:26;;;;;;;17.47;12.67;;;;;;;8.79;96.53;101510.22;5038380;28;20160;-85
2022/09/23 04:01:52;;;;;;;16.27;13.00;;;;;;;8.73;96.26;101497.47;5037206;28;20085;-84
2022/09/23 04:04:17;;;;;;;16.90;13.47;;;;;;;8.70;96.57;101500.53;5037329;28;20032;-84
2022/09/23 04:06:43;;;;;;;16.93;13.10;;;;;;;8.59;97.04;101501.84;5070156;28;20353;-84
2022/09/23 04:09:08;;;;;;;16.23;12.97;;;;;;;8.62;97.50;101497.91;5037344;28;20271;-85
2022/09/23 04:11:35;;;;;;;18.27;13.33;;;;;;;8.57;97.75;101500.34;5052315;28;20033;-83
2022/09/23 04:14:00;;;;;;;17.17;13.27;;;;;;;8.56;97.99;101498.66;5037460;28;20029;-84
2022/09/23 04:16:26;;;;;;;17.50;13.13;;;;;;;8.54;98.27;101500.69;5037608;28;20037;-84
2022/09/23 04:18:51;;;;;;;14.87;12.80;;;;;;;8.53;97.99;101499.84;5036498;28;20068;-84
2022/09/23 04:21:17;;;;;;;16.53;12.43;;;;;;;8.53;97.37;101499.03;5037173;28;20458;-86
2022/09/23 04:23:43;;;;;;;16.73;12.37;;;;;;;8.50;97.53;101500.22;5037302;28;20051;-84
2022/09/23 04:26:09;;;;;;;16.60;12.53;;;;;;;8.47;97.67;101505.13;5037049;28;20041;-85
2022/09/23 04:28:34;;;;;;;16.10;12.23;;;;;;;8.55;97.42;101503.19;5037315;28;20033;-84
2022/09/23 04:31:04;;;;;;;15.67;13.23;;;;;;;8.54;97.47;101501.53;5037029;28;20159;-84
2022/09/23 04:33:30;;;;;;;16.93;12.13;;;;;;;8.54;97.05;101498.84;5036926;28;20040;-84
2022/09/23 04:35:55;;;;;;;15.90;12.50;;;;;;;8.55;97.07;101496.97;5037098;28;20124;-84
2022/09/23 04:38:21;;;;;;;16.53;12.50;;;;;;;8.54;97.13;101495.28;5036426;28;20045;-84
2022/09/23 04:40:47;;;;;;;18.17;13.40;;;;;;;8.53;97.44;101493.63;5037019;28;20641;-86
2022/09/23 04:43:14;;;;;;;16.03;12.57;;;;;;;8.54;97.44;101497.97;5036741;28;20389;-84
2022/09/23 04:46:04;;;;;;;17.27;12.87;;;;;;;8.57;97.61;101501.16;5035244;28;20048;-84
2022/09/23 04:48:29;;;;;;;16.40;13.07;;;;;;;8.49;98.38;101495.84;5037349;28;20582;-85
2022/09/23 04:51:07;;;;;;;19.70;12.63;;;;;;;8.55;97.97;101496.97;5036533;28;20045;-85
2022/09/23 04:53:33;;;;;;;18.83;12.90;;;;;;;8.54;97.37;101489.88;5036547;28;20041;-83
2022/09/23 04:56:06;;;;;;;19.13;13.10;;;;;;;8.55;97.16;101492.38;5036584;28;20041;-85
2022/09/23 04:58:32;;;;;;;21.13;13.57;;;;;;;8.55;97.32;101488.84;5035293;28;20066;-84
2022/09/23 05:00:57;;;;;;;21.80;14.83;;;;;;;8.53;97.25;101485.50;5036672;28;20485;-84
2022/09/23 05:03:23;;;;;;;21.07;14.80;;;;;;;8.55;97.13;101489.69;5034402;28;20065;-85
2022/09/23 05:05:49;;;;;;;25.00;15.90;;;;;;;8.56;97.24;101488.66;5036593;28;20040;-84
2022/09/23 05:08:15;;;;;;;22.17;15.57;;;;;;;8.59;97.24;101488.31;5035886;28;20139;-86
2022/09/23 05:10:41;;;;;;;23.70;14.87;;;;;;;8.60;96.87;101489.16;5036345;28;20044;-85
2022/09/23 05:13:07;;;;;;;20.63;15.23;;;;;;;8.64;96.79;101484.25;5051360;28;20152;-85
2022/09/23 05:15:44;;;;;;;21.50;14.50;;;;;;;8.67;96.56;101495.50;5042427;28;20076;-84
2022/09/23 05:18:10;;;;;;;20.60;13.67;;;;;;;8.60;97.45;101487.28;5050894;28;20485;-84
2022/09/23 05:20:35;;;;;;;18.93;12.90;;;;;;;8.59;97.74;101488.31;5036404;28;20033;-84
2022/09/23 05:23:00;;;;;;;18.40;13.00;;;;;;;8.64;98.07;101495.03;5067840;28;20037;-84
2022/09/23 05:25:26;;;;;;;17.83;12.67;;;;;;;8.56;98.11;101493.25;5034828;28;20083;-85
2022/09/23 05:27:51;;;;;;;19.47;13.20;;;;;;;8.55;98.66;101495.09;5067799;28;20630;-84
2022/09/23 05:30:16;;;;;;;18.17;12.73;;;;;;;8.54;98.54;101495.28;5050961;28;20032;-84
2022/09/23 05:32:42;;;;;;;18.33;12.90;;;;;;;8.50;98.31;101494.81;5035285;28;20044;-84
2022/09/23 05:35:07;;;;;;;16.93;12.80;;;;;;;8.50;98.31;101494.81;5067934;28;20124;-84
2022/09/23 05:37:33;;;;;;;16.90;12.57;;;;;;;8.51;98.58;101496.47;5034832;28;20436;-84
2022/09/23 05:39:59;;;;;;;18.13;12.40;;;;;;;8.51;98.63;101498.34;5066830;28;20388;-84
2022/09/23 05:42:24;;;;;;;18.63;12.93;;;;;;;8.51;98.68;101496.47;5035173;28;20507;-85
2022/09/23 05:44:49;;;;;;;18.30;12.67;;;;;;;8.52;98.88;101503.56;5036033;28;20389;-86
2022/09/23 05:47:15;;;;;;;17.20;12.87;;;;;;;8.49;98.56;101503.94;5036413;28;20048;-84
2022/09/23 05:49:40;;;;;;;17.67;12.93;;;;;;;8.50;98.71;101508.31;5066803;28;20469;-84
2022/09/23 05:52:06;;;;;;;18.30;12.87;;;;;;;8.53;98.67;101502.56;5035140;28;20140;-84
2022/09/23 05:54:31;;;;;;;18.53;12.63;;;;;;;8.57;98.34;101506.56;5051041;28;20047;-84
2022/09/23 05:56:57;;;;;;;21.23;13.20;;;;;;;8.61;97.98;101513.28;5034009;28;20048;-85
2022/09/23 05:59:22;;;;;;;19.90;12.50;;;;;;;8.63;98.04;101509.56;5034967;28;20669;-84
2022/09/23 06:01:48;;;;;;;19.80;12.90;;;;;;;8.66;98.29;101509.19;5049783;28;20047;-84
2022/09/23 06:04:13;;;;;;;21.37;12.60;;;;;;;8.70;97.75;101513.22;5050607;28;20173;-84
2022/09/23 06:06:40;;;;;;;20.07;12.50;;;;;;;8.72;97.56;101506.59;5066544;28;20586;-83
2022/09/23 06:09:08;;;;;;;21.27;12.70;;;;;;;8.76;97.36;101510.63;5035246;28;20029;-85
2022/09/23 06:11:36;;;;;;;17.33;12.23;;;;;;;8.79;97.83;101510.22;5033614;28;20033;-84
2022/09/23 06:14:02;;;;;;;15.93;12.10;;;;;;;8.84;97.42;101511.53;5035250;28;20036;-84
2022/09/23 06:16:29;;;;;;;16.00;11.67;;;;;;;8.85;97.10;101497.84;5035047;28;20041;-85
2022/09/23 06:18:55;;;;;;;16.53;11.70;;;;;;;8.89;95.97;101498.31;5066798;28;20037;-84
2022/09/23 06:21:20;;;;;;;16.77;11.00;;;;;;;8.90;94.88;101490.03;5034685;28;20057;-83
2022/09/23 06:23:45;;;;;;;17.53;11.33;;;;;;;8.97;95.78;101478.50;5035279;28;20026;-84
2022/09/23 06:26:14;;;;;;;15.47;11.73;;;;;;;9.02;96.12;101498.53;5050693;28;20140;-85
2022/09/23 06:28:41;;;;;;;16.43;11.57;;;;;;;9.04;96.18;101490.22;5035438;28;20627;-84
2022/09/23 06:31:12;;;;;;;15.53;11.13;;;;;;;9.09;95.17;101496.75;5034116;28;20098;-84
2022/09/23 06:33:38;;;;;;;17.83;10.93;;;;;;;9.15;94.64;101492.47;5034584;28;20606;-84
2022/09/23 06:36:05;;;;;;;17.67;11.73;;;;;;;9.17;93.89;101497.72;5035108;28;20116;-85
2022/09/23 06:38:34;;;;;;;16.23;10.60;;;;;;;9.21;93.53;101486.31;5034953;28;20039;-84
2022/09/23 06:41:19;;;;;;;18.00;11.33;;;;;;;9.32;94.15;101489.59;5035369;28;20044;-84
2022/09/23 06:43:45;;;;;;;20.37;12.60;;;;;;;9.35;94.47;101491.91;5034952;28;20040;-84
2022/09/23 06:46:14;;;;;;;18.53;11.27;;;;;;;9.37;94.22;101495.25;5035190;28;20264;-85
2022/09/23 06:48:42;;;;;;;18.67;11.50;;;;;;;9.38;94.05;101486.13;5034900;28;20031;-84
2022/09/23 06:51:10;;;;;;;18.33;11.33;;;;;;;9.44;94.47;101493.50;5037845;28;20258;-84
2022/09/23 06:53:35;;;;;;;17.43;11.30;;;;;;;9.42;93.54;101498.25;5038373;28;20040;-84
2022/09/23 06:56:11;;;;;;;19.27;11.60;;;;;;;9.41;92.94;101494.72;5039373;28;20797;-84
2022/09/23 06:58:38;;;;;;;18.93;11.57;;;;;;;9.50;93.54;101491.91;5028118;28;20389;-84
2022/09/23 07:01:09;;;;;;;18.43;11.67;;;;;;;9.52;93.27;101497.94;5045463;28;20041;-84
2022/09/23 07:03:35;;;;;;;17.63;10.53;;;;;;;9.60;93.25;101495.13;5036720;28;20040;-84
2022/09/23 07:06:01;;;;;;;17.47;11.27;;;;;;;9.66;93.85;101498.97;5037012;28;20049;-85
2022/09/23 07:08:28;;;;;;;18.93;11.57;;;;;;;9.69;93.28;101487.75;5044147;28;20048;-84
2022/09/23 07:11:13;;;;;;;18.10;10.90;;;;;;;9.76;92.36;101494.94;5036890;28;20116;-83
2022/09/23 07:13:40;;;;;;;17.58;10.93;;;;;;;9.82;92.74;101493.31;5038430;28;20086;-82
2022/09/23 07:16:05;;;;;;;17.83;11.10;;;;;;;9.85;90.10;101484.81;5038096;28;20388;-83
2022/09/23 07:18:33;;;;;;;17.63;10.93;;;;;;;9.97;90.85;101496.00;5037702;28;20044;-84
2022/09/23 07:21:12;;;;;;;17.53;10.93;;;;;;;10.06;91.19;101494.84;5038272;28;20557;-84
2022/09/23 07:23:38;;;;;;;15.13;10.80;;;;;;;10.16;91.92;101499.94;5037875;28;20040;-82
2022/09/23 07:26:04;;;;;;;16.10;10.90;;;;;;;10.26;91.82;101499.59;5038335;28;20429;-83
2022/09/23 07:28:31;;;;;;;17.17;11.13;;;;;;;10.30;90.88;101493.59;5037743;28;21523;-83
2022/09/23 07:31:00;;;;;;;17.50;10.97;;;;;;;10.38;91.29;101486.41;5044367;28;20044;-84
2022/09/23 07:33:28;;;;;;;17.10;10.70;;;;;;;10.43;89.67;101492.06;5038075;28;20038;-83
2022/09/23 07:35:53;;;;;;;15.60;10.97;;;;;;;10.46;89.16;101489.00;5068672;28;20123;-83
2022/09/23 07:38:18;;;;;;;15.23;10.73;;;;;;;10.56;89.41;101496.78;5069881;28;20045;-84
2022/09/23 07:40:44;;;;;;;17.07;11.80;;;;;;;10.63;89.69;101495.81;5038056;28;20080;-84
2022/09/23 07:43:09;;;;;;;18.43;11.87;;;;;;;10.70;88.59;101497.72;5069269;28;20132;-82
2022/09/23 07:45:37;;;;;;;18.70;12.00;;;;;;;10.83;90.14;101497.00;5027726;28;20037;-83
2022/09/23 07:48:03;;;;;;;19.07;10.90;;;;;;;10.96;89.55;101495.19;5037854;28;20032;-84
2022/09/23 07:50:30;;;;;;;15.67;10.10;;;;;;;11.04;87.69;101491.47;5037989;28;20044;-84
2022/09/23 07:52:55;;;;;;;16.00;10.07;;;;;;;11.11;86.57;101492.38;5069087;28;20496;-83
2022/09/23 07:55:20;;;;;;;16.67;10.43;;;;;;;11.24;87.34;101488.88;5069736;28;21332;-84
2022/09/23 07:57:46;;;;;;;19.13;13.43;;;;;;;11.34;86.59;101495.81;5036456;28;20048;-83
2022/09/23 08:00:12;;;;;;;16.77;10.13;;;;;;;11.54;85.90;101491.31;5035726;28;20215;-84
2022/09/23 08:02:38;;;;;;;18.37;9.63;;;;;;;11.70;84.38;101498.28;5037710;28;21441;-82
2022/09/23 08:05:04;;;;;;;16.73;10.27;;;;;;;11.84;84.25;101499.16;5037538;28;20033;-84
2022/09/23 08:07:33;;;;;;;16.83;10.07;;;;;;;11.96;83.80;101505.69;5037154;28;20528;-85
2022/09/23 08:09:59;;;;;;;17.67;10.33;;;;;;;11.99;83.73;101499.88;5037315;28;20114;-83
2022/09/23 08:12:24;;;;;;;16.90;10.80;;;;;;;12.09;83.22;101501.34;5036667;28;20044;-83
2022/09/23 08:14:49;;;;;;;19.43;10.80;;;;;;;12.18;82.56;101508.25;5043285;28;20041;-82
2022/09/23 08:17:15;;;;;;;17.90;11.00;;;;;;;12.24;83.65;101504.72;5069375;28;20060;-83
2022/09/23 08:19:40;;;;;;;15.17;9.10;;;;;;;12.29;82.13;101504.94;5037456;28;20037;-83
2022/09/23 08:22:05;;;;;;;14.40;8.63;;;;;;;12.33;82.61;101505.34;5035478;28;20033;-83
2022/09/23 08:24:31;;;;;;;15.00;9.47;;;;;;;12.45;81.92;101517.28;5037181;28;20045;-84
2022/09/23 08:26:57;;;;;;;13.93;9.20;;;;;;;12.48;82.10;101516.03;5037590;28;20401;-83
2022/09/23 08:29:24;;;;;;;15.70;9.27;;;;;;;12.66;83.17;101518.13;5036797;28;20029;-83
2022/09/23 08:31:50;;;;;;;13.63;9.67;;;;;;;12.75;81.36;101507.88;5037071;28;20063;-83
2022/09/23 08:34:17;;;;;;;17.50;10.03;;;;;;;12.83;80.64;101510.38;5036497;28;20045;-83
2022/09/23 08:36:43;;;;;;;15.73;9.53;;;;;;;12.93;80.06;101505.38;5037290;28;20120;-82
2022/09/23 08:39:13;;;;;;;15.63;9.10;;;;;;;12.99;78.92;101504.50;5036623;28;20037;-82
2022/09/23 08:42:00;;;;;;;14.60;9.47;;;;;;;13.13;80.63;101502.59;5035198;28;20044;-83
2022/09/23 08:44:49;;;;;;;16.63;9.87;;;;;;;13.27;78.44;101508.00;5035232;28;20052;-83
2022/09/23 08:47:31;;;;;;;20.07;11.20;;;;;;;13.32;76.50;101503.59;5036265;28;20758;-83
2022/09/23 08:50:05;;;;;;;19.03;11.00;;;;;;;13.40;76.82;101510.72;5036834;28;20114;-83
2022/09/23 08:52:49;;;;;;;;;;;;;;;13.64;77.48;101505.59;5036863;28;20100;-83
2022/09/23 08:55:16;;;;;;;17.67;9.83;;;;;;;13.51;75.50;101503.78;5035891;28;19921;-83
2022/09/23 08:58:03;;;;;;;15.30;9.03;;;;;;;13.63;76.72;101503.94;5036083;28;20048;-83
2022/09/23 09:00:39;;;;;;;16.47;9.17;;;;;;;13.77;76.66;101507.44;5069023;28;20029;-83
2022/09/23 09:03:25;;;;;;;17.33;9.97;;;;;;;13.89;76.87;101500.25;5035802;28;21330;-83
2022/09/23 09:05:52;;;;;;;16.90;9.80;;;;;;;13.96;73.87;101498.31;5035969;28;20044;-84
2022/09/23 09:08:24;;;;;;;19.33;9.87;;;;;;;14.07;73.80;101496.78;5036172;28;20068;-82
2022/09/23 09:10:53;;;;;;;15.90;9.07;;;;;;;14.17;74.77;101493.56;5034797;28;20108;-84
2022/09/23 09:13:30;;;;;;;15.23;9.27;;;;;;;14.27;73.51;101493.91;5024628;28;20033;-83
2022/09/23 09:16:14;;;;;;;12.97;8.50;;;;;;;14.42;74.84;101496.31;5026236;28;20033;-83
2022/09/23 09:18:54;;;;;;;13.15;8.23;;;;;;;14.53;73.00;101489.31;5035832;28;20033;-84
2022/09/23 09:21:38;;;;;;;13.47;8.30;;;;;;;14.77;73.68;101490.41;5036140;28;20055;-83
2022/09/23 09:24:15;;;;;;;14.95;8.73;;;;;;;14.96;70.93;101485.81;5035974;28;20040;-84
2022/09/23 09:26:40;;;;;;;14.37;8.40;;;;;;;15.08;70.16;101488.66;5036124;28;20307;-82
2022/09/23 09:29:32;;;;;;;11.60;7.63;;;;;;;15.34;68.98;101483.94;5035944;28;20041;-82
2022/09/23 09:31:58;;;;;;;14.33;8.87;;;;;;;15.46;67.71;101489.47;5035547;28;20187;-84
2022/09/23 09:34:33;;;;;;;16.80;8.20;;;;;;;15.61;68.73;101483.59;5036046;28;20234;-84
2022/09/23 09:37:09;;;;;;;12.20;7.90;;;;;;;15.57;66.13;101485.97;5035884;28;20043;-84
2022/09/23 09:39:35;;;;;;;12.20;7.60;;;;;;;15.70;66.72;101477.59;5035651;28;20397;-83
2022/09/23 09:42:02;;;;;;;13.97;7.97;;;;;;;15.87;65.35;101479.72;5035768;28;20041;-85
2022/09/23 09:44:46;;;;;;;13.17;7.87;;;;;;;16.00;65.19;101482.25;5035368;28;20033;-85
2022/09/23 09:47:27;;;;;;;15.18;7.88;;;;;;;16.07;65.32;101473.94;5035392;28;20029;-83
2022/09/23 09:50:05;;;;;;;12.80;7.73;;;;;;;16.33;68.37;101486.41;5035468;28;20044;-84
2022/09/23 09:52:31;;;;;;;12.60;8.87;;;;;;;16.26;65.79;101474.72;5035884;28;20228;-83
2022/09/23 09:55:11;;;;;;;11.83;8.27;;;;;;;16.37;67.72;101475.81;5067322;28;20133;-83
2022/09/23 09:57:43;;;;;;;14.03;8.53;;;;;;;16.45;65.11;101475.44;5035610;28;20032;-84
2022/09/23 10:00:33;;;;;;;12.37;8.50;;;;;;;16.48;67.05;101468.69;5035536;28;20118;-85
2022/09/23 10:03:13;;;;;;;12.80;7.17;;;;;;;16.60;64.82;101471.44;5036005;28;20060;-86
2022/09/23 10:05:48;;;;;;;15.13;8.17;;;;;;;16.51;64.33;101470.97;5067498;28;20094;-85
2022/09/23 10:08:25;;;;;;;14.37;7.90;;;;;;;16.59;65.75;101467.88;5035111;28;20037;-85
2022/09/23 10:11:02;;;;;;;14.90;8.03;;;;;;;16.61;66.46;101464.91;5035080;28;20118;-83
2022/09/23 10:13:29;;;;;;;15.17;8.43;;;;;;;16.79;65.96;101467.50;5035807;28;20476;-87
2022/09/23 10:15:58;;;;;;;16.20;9.37;;;;;;;16.82;65.78;101468.94;5035560;28;20048;-84
2022/09/23 10:18:36;;;;;;;15.27;8.37;;;;;;;16.87;64.11;101460.84;5067593;28;20037;-84
2022/09/23 10:21:13;;;;;;;15.60;8.13;;;;;;;17.13;64.27;101455.97;5035486;28;20044;-85
2022/09/23 10:23:53;;;;;;;15.60;8.00;;;;;;;17.19;64.05;101463.22;5034895;28;20584;-85
2022/09/23 10:26:40;;;;;;;15.47;8.10;;;;;;;17.30;63.69;101458.78;5071196;28;20557;-84
2022/09/23 10:29:27;;;;;;;10.20;6.20;;;;;;;17.39;59.47;101460.06;5038723;28;20556;-86
2022/09/23 10:32:32;;;;;;;12.77;6.57;;;;;;;17.42;60.97;101453.28;5039818;28;20044;-86
2022/09/23 10:35:12;;;;;;;12.93;6.68;;;;;;;17.37;62.12;101454.00;5039178;28;20047;-87
2022/09/23 10:37:39;;;;;;;13.23;7.27;;;;;;;17.38;59.74;101459.25;5039284;28;20040;-86
2022/09/23 10:48:51;;;;;;;12.27;6.47;;;;;;;17.55;57.83;101453.00;5039198;28;20582;-85
2022/09/23 10:52:02;;;;;;;9.83;5.87;;;;;;;17.61;58.81;101443.81;5039305;28;20086;-85
2022/09/23 10:54:39;;;;;;;11.30;6.20;;;;;;;17.59;59.65;101450.63;4991819;28;20102;-85
2022/09/23 10:57:41;;;;;;;10.97;5.77;;;;;;;17.58;57.87;101452.50;5038970;28;20082;-85
2022/09/23 11:00:27;;;;;;;8.90;5.27;;;;;;;17.55;58.12;101455.75;5039059;28;20037;-86
2022/09/23 11:03:09;;;;;;;11.17;5.90;;;;;;;17.49;58.99;101443.03;5038773;28;20032;-85
2022/09/23 11:06:16;;;;;;;11.70;5.73;;;;;;;17.57;60.20;101450.84;5038865;28;20043;-85
2022/09/23 11:08:51;;;;;;;10.53;5.00;;;;;;;17.53;55.87;101449.69;5038078;28;20041;-84
2022/09/23 11:11:49;;;;;;;12.93;6.10;;;;;;;17.53;58.33;101442.28;5036904;28;20037;-87
2022/09/23 11:14:37;;;;;;;11.33;5.60;;;;;;;17.48;58.39;101444.09;5038600;28;20033;-86
2022/09/23 11:17:22;;;;;;;10.30;6.00;;;;;;;17.55;59.66;101442.03;5038152;28;20546;-85
2022/09/23 11:19:59;;;;;;;12.43;5.78;;;;;;;17.50;59.24;101444.66;5070681;28;20037;-84
2022/09/23 11:22:52;;;;;;;8.83;5.57;;;;;;;17.43;59.06;101438.50;5037159;28;20063;-83
2022/09/23 11:25:56;;;;;;;13.43;5.80;;;;;;;17.52;59.84;101434.31;5038448;28;20029;-85
2022/09/23 11:31:49;;;;;;;10.07;5.00;;;;;;;17.63;59.09;101435.34;5055514;28;20432;-88
2022/09/23 11:34:21;;;;;;;8.77;5.60;;;;;;;17.55;58.73;101434.63;5054715;28;20068;-84
2022/09/23 11:36:51;;;;;;;9.47;5.90;;;;;;;17.55;59.14;101431.06;5054672;28;20059;-86
2022/09/23 11:39:22;;;;;;;10.70;5.37;;;;;;;17.57;59.11;101431.69;5054617;28;20036;-85
2022/09/23 11:41:53;;;;;;;9.77;5.50;;;;;;;17.58;58.21;101416.88;5054532;28;20098;-86
2022/09/23 11:44:32;;;;;;;12.17;5.30;;;;;;;17.54;58.29;101427.53;5037472;28;20162;-84
2022/09/23 11:47:19;;;;;;;6.57;4.13;;;;;;;17.58;57.02;101430.56;5045446;28;20044;-86
2022/09/23 11:50:26;;;;;;;6.53;4.80;;;;;;;17.66;58.29;101416.47;5045423;28;20032;-86
2022/09/23 11:53:12;;;;;;;7.63;4.20;;;;;;;17.57;54.48;101415.25;5054099;28;20053;-86
2022/09/23 11:55:50;;;;;;;9.30;4.37;;;;;;;17.64;56.41;101413.19;5053914;28;20490;-85